sensor_id;sensor_type;location;lat;lon;timestamp;pressure;altitude;pressure_sealevel;temperature;humidity
72061;BME280;59925;52.136;5.420;2023-09-07T00:01:31;102113.06;;;18.21;83.39
72061;BME280;59925;52.136;5.420;2023-09-07T00:03:58;102109.03;;;18.19;83.07
72061;BME280;59925;52.136;5.420;2023-09-07T00:06:25;102110.63;;;18.20;82.49
72061;BME280;59925;52.136;5.420;2023-09-07T00:08:52;102105.81;;;18.17;82.60
72061;BME280;59925;52.136;5.420;2023-09-07T00:11:19;102107.19;;;18.14;82.23
72061;BME280;59925;52.136;5.420;2023-09-07T00:13:45;102103.13;;;18.12;82.66
72061;BME280;59925;52.136;5.420;2023-09-07T00:16:12;102102.91;;;18.08;82.83
72061;BME280;59925;52.136;5.420;2023-09-07T00:18:38;102107.31;;;18.04;82.82
72061;BME280;59925;52.136;5.420;2023-09-07T00:21:05;102108.41;;;18.03;82.56
72061;BME280;59925;52.136;5.420;2023-09-07T00:23:31;102104.06;;;18.02;82.48
72061;BME280;59925;52.136;5.420;2023-09-07T00:25:58;102100.03;;;17.99;82.27
72061;BME280;59925;52.136;5.420;2023-09-07T00:28:24;102095.97;;;17.97;82.03
72061;BME280;59925;52.136;5.420;2023-09-07T00:30:51;102098.16;;;17.95;81.78
72061;BME280;59925;52.136;5.420;2023-09-07T00:33:17;102097.94;;;17.91;82.60
72061;BME280;59925;52.136;5.420;2023-09-07T00:35:43;102106.13;;;17.86;83.38
72061;BME280;59925;52.136;5.420;2023-09-07T00:38:10;102096.94;;;17.82;84.03
72061;BME280;59925;52.136;5.420;2023-09-07T00:40:37;102098.09;;;17.75;84.42
72061;BME280;59925;52.136;5.420;2023-09-07T00:43:04;102104.09;;;17.72;84.53
72061;BME280;59925;52.136;5.420;2023-09-07T00:45:31;102092.19;;;17.68;84.35
72061;BME280;59925;52.136;5.420;2023-09-07T00:47:57;102090.88;;;17.66;84.63
72061;BME280;59925;52.136;5.420;2023-09-07T00:50:24;102095.53;;;17.60;85.68
72061;BME280;59925;52.136;5.420;2023-09-07T00:52:51;102092.59;;;17.56;85.62
72061;BME280;59925;52.136;5.420;2023-09-07T00:55:18;102093.16;;;17.53;85.93
72061;BME280;59925;52.136;5.420;2023-09-07T00:57:45;102091.84;;;17.51;86.20
72061;BME280;59925;52.136;5.420;2023-09-07T01:00:12;102085.91;;;17.49;85.58
72061;BME280;59925;52.136;5.420;2023-09-07T01:02:38;102090.50;;;17.48;84.88
72061;BME280;59925;52.136;5.420;2023-09-07T01:05:05;102088.88;;;17.47;84.97
72061;BME280;59925;52.136;5.420;2023-09-07T01:07:40;102093.78;;;17.45;85.12
72061;BME280;59925;52.136;5.420;2023-09-07T01:10:09;102087.53;;;17.44;84.56
72061;BME280;59925;52.136;5.420;2023-09-07T01:12:36;102079.72;;;17.43;84.32
72061;BME280;59925;52.136;5.420;2023-09-07T01:15:02;102089.22;;;17.40;84.22
72061;BME280;59925;52.136;5.420;2023-09-07T01:17:32;102092.78;;;17.36;84.78
72061;BME280;59925;52.136;5.420;2023-09-07T01:20:03;102089.31;;;17.30;85.00
72061;BME280;59925;52.136;5.420;2023-09-07T01:22:33;102087.97;;;17.27;84.65
72061;BME280;59925;52.136;5.420;2023-09-07T01:25:00;102091.81;;;17.21;84.86
72061;BME280;59925;52.136;5.420;2023-09-07T01:27:28;102089.44;;;17.14;85.54
72061;BME280;59925;52.136;5.420;2023-09-07T01:29:55;102097.84;;;17.13;85.89
72061;BME280;59925;52.136;5.420;2023-09-07T01:32:22;102093.28;;;17.08;85.75
72061;BME280;59925;52.136;5.420;2023-09-07T01:34:48;102088.97;;;17.02;86.17
72061;BME280;59925;52.136;5.420;2023-09-07T01:37:15;102085.78;;;17.00;86.35
72061;BME280;59925;52.136;5.420;2023-09-07T01:39:41;102081.72;;;16.97;85.77
72061;BME280;59925;52.136;5.420;2023-09-07T01:42:08;102078.47;;;16.95;85.76
72061;BME280;59925;52.136;5.420;2023-09-07T01:44:34;102083.09;;;16.95;85.39
72061;BME280;59925;52.136;5.420;2023-09-07T01:47:02;102085.53;;;16.91;85.44
72061;BME280;59925;52.136;5.420;2023-09-07T01:49:29;102085.78;;;16.90;85.00
72061;BME280;59925;52.136;5.420;2023-09-07T01:51:56;102080.66;;;16.88;84.81
72061;BME280;59925;52.136;5.420;2023-09-07T01:54:23;102081.75;;;16.87;84.56
72061;BME280;59925;52.136;5.420;2023-09-07T01:56:49;102077.44;;;16.86;84.26
72061;BME280;59925;52.136;5.420;2023-09-07T01:59:15;102073.66;;;16.82;84.55
72061;BME280;59925;52.136;5.420;2023-09-07T02:01:42;102073.19;;;16.75;85.43
72061;BME280;59925;52.136;5.420;2023-09-07T02:04:08;102076.72;;;16.70;85.53
72061;BME280;59925;52.136;5.420;2023-09-07T02:06:35;102070.78;;;16.68;85.44
72061;BME280;59925;52.136;5.420;2023-09-07T02:09:02;102074.88;;;16.65;85.64
72061;BME280;59925;52.136;5.420;2023-09-07T02:11:30;102077.59;;;16.60;86.04
72061;BME280;59925;52.136;5.420;2023-09-07T02:13:57;102068.16;;;16.58;85.77
72061;BME280;59925;52.136;5.420;2023-09-07T02:16:23;102074.34;;;16.58;85.14
72061;BME280;59925;52.136;5.420;2023-09-07T02:18:50;102073.56;;;16.58;84.69
72061;BME280;59925;52.136;5.420;2023-09-07T02:21:17;102071.69;;;16.53;85.16
72061;BME280;59925;52.136;5.420;2023-09-07T02:23:43;102065.22;;;16.49;85.63
72061;BME280;59925;52.136;5.420;2023-09-07T02:26:10;102071.19;;;16.46;85.47
72061;BME280;59925;52.136;5.420;2023-09-07T02:28:36;102072.28;;;16.45;85.63
72061;BME280;59925;52.136;5.420;2023-09-07T02:31:04;102076.91;;;16.39;86.39
72061;BME280;59925;52.136;5.420;2023-09-07T02:33:31;102075.81;;;16.35;86.85
72061;BME280;59925;52.136;5.420;2023-09-07T02:35:58;102072.09;;;16.31;86.84
72061;BME280;59925;52.136;5.420;2023-09-07T02:38:25;102077.50;;;16.26;87.24
72061;BME280;59925;52.136;5.420;2023-09-07T02:40:52;102075.34;;;16.22;87.39
72061;BME280;59925;52.136;5.420;2023-09-07T02:43:19;102073.22;;;16.19;87.81
72061;BME280;59925;52.136;5.420;2023-09-07T02:45:45;102076.47;;;16.16;88.12
72061;BME280;59925;52.136;5.420;2023-09-07T02:48:12;102071.59;;;16.13;88.21
72061;BME280;59925;52.136;5.420;2023-09-07T02:50:38;102075.69;;;16.11;88.71
72061;BME280;59925;52.136;5.420;2023-09-07T02:53:06;102077.59;;;16.05;88.37
72061;BME280;59925;52.136;5.420;2023-09-07T02:55:32;102074.63;;;16.01;88.74
72061;BME280;59925;52.136;5.420;2023-09-07T02:57:59;102071.66;;;15.98;88.92
72061;BME280;59925;52.136;5.420;2023-09-07T03:00:26;102077.63;;;15.94;88.95
72061;BME280;59925;52.136;5.420;2023-09-07T03:02:52;102080.34;;;15.89;89.07
72061;BME280;59925;52.136;5.420;2023-09-07T03:05:19;102084.44;;;15.87;88.93
72061;BME280;59925;52.136;5.420;2023-09-07T03:07:46;102078.47;;;15.85;89.21
72061;BME280;59925;52.136;5.420;2023-09-07T03:10:13;102078.69;;;15.83;88.58
72061;BME280;59925;52.136;5.420;2023-09-07T03:12:40;102079.28;;;15.80;89.04
72061;BME280;59925;52.136;5.420;2023-09-07T03:15:07;102084.16;;;15.78;89.32
72061;BME280;59925;52.136;5.420;2023-09-07T03:17:33;102085.47;;;15.75;89.24
72061;BME280;59925;52.136;5.420;2023-09-07T03:20:00;102074.66;;;15.75;89.04
72061;BME280;59925;52.136;5.420;2023-09-07T03:22:27;102081.69;;;15.76;88.49
72061;BME280;59925;52.136;5.420;2023-09-07T03:24:56;102086.59;;;15.74;88.18
72061;BME280;59925;52.136;5.420;2023-09-07T03:27:22;102079.56;;;15.73;88.04
72061;BME280;59925;52.136;5.420;2023-09-07T03:29:50;102080.91;;;15.71;88.75
72061;BME280;59925;52.136;5.420;2023-09-07T03:32:18;102081.72;;;15.66;88.67
72061;BME280;59925;52.136;5.420;2023-09-07T03:34:44;102084.16;;;15.62;88.32
72061;BME280;59925;52.136;5.420;2023-09-07T03:37:11;102074.72;;;15.60;88.88
72061;BME280;59925;52.136;5.420;2023-09-07T03:39:38;102076.59;;;15.59;88.84
72061;BME280;59925;52.136;5.420;2023-09-07T03:42:04;102081.22;;;15.59;88.47
72061;BME280;59925;52.136;5.420;2023-09-07T03:44:31;102074.97;;;15.58;87.90
72061;BME280;59925;52.136;5.420;2023-09-07T03:46:57;102074.97;;;15.58;87.55
72061;BME280;59925;52.136;5.420;2023-09-07T03:49:24;102077.97;;;15.57;87.88
72061;BME280;59925;52.136;5.420;2023-09-07T03:51:51;102072.81;;;15.55;88.40
72061;BME280;59925;52.136;5.420;2023-09-07T03:54:17;102077.16;;;15.51;88.62
72061;BME280;59925;52.136;5.420;2023-09-07T03:56:43;102074.19;;;15.47;88.93
72061;BME280;59925;52.136;5.420;2023-09-07T03:59:10;102081.78;;;15.45;89.19
72061;BME280;59925;52.136;5.420;2023-09-07T04:01:37;102078.53;;;15.43;89.36
72061;BME280;59925;52.136;5.420;2023-09-07T04:04:04;102081.22;;;15.43;89.41
72061;BME280;59925;52.136;5.420;2023-09-07T04:06:31;102082.31;;;15.42;89.43
72061;BME280;59925;52.136;5.420;2023-09-07T04:08:57;102084.19;;;15.42;89.06
72061;BME280;59925;52.136;5.420;2023-09-07T04:11:24;102078.25;;;15.40;88.58
72061;BME280;59925;52.136;5.420;2023-09-07T04:13:50;102085.28;;;15.41;87.90
72061;BME280;59925;52.136;5.420;2023-09-07T04:16:17;102083.38;;;15.41;88.01
72061;BME280;59925;52.136;5.420;2023-09-07T04:18:43;102083.13;;;15.38;88.49
72061;BME280;59925;52.136;5.420;2023-09-07T04:21:10;102091.22;;;15.32;89.02
72061;BME280;59925;52.136;5.420;2023-09-07T04:23:37;102082.03;;;15.28;89.09
72061;BME280;59925;52.136;5.420;2023-09-07T04:26:09;102084.75;;;15.23;89.68
72061;BME280;59925;52.136;5.420;2023-09-07T04:28:36;102080.44;;;15.22;89.89
72061;BME280;59925;52.136;5.420;2023-09-07T04:31:05;102080.72;;;15.21;89.82
72061;BME280;59925;52.136;5.420;2023-09-07T04:33:32;102081.78;;;15.20;89.23
72061;BME280;59925;52.136;5.420;2023-09-07T04:36:12;102084.75;;;15.18;88.95
72061;BME280;59925;52.136;5.420;2023-09-07T04:38:40;102082.03;;;15.18;88.39
72061;BME280;59925;52.136;5.420;2023-09-07T04:41:07;102081.25;;;15.17;88.16
72061;BME280;59925;52.136;5.420;2023-09-07T04:43:34;102085.03;;;15.16;88.32
72061;BME280;59925;52.136;5.420;2023-09-07T04:46:01;102082.84;;;15.13;89.00
72061;BME280;59925;52.136;5.420;2023-09-07T04:48:27;102086.91;;;15.11;89.03
72061;BME280;59925;52.136;5.420;2023-09-07T04:51:01;102092.56;;;15.09;89.17
72061;BME280;59925;52.136;5.420;2023-09-07T04:53:30;102082.03;;;15.08;89.16
72061;BME280;59925;52.136;5.420;2023-09-07T04:55:58;102099.31;;;15.07;89.18
72061;BME280;59925;52.136;5.420;2023-09-07T04:58:25;102091.75;;;15.04;89.12
72061;BME280;59925;52.136;5.420;2023-09-07T05:00:52;102095.53;;;15.02;89.20
72061;BME280;59925;52.136;5.420;2023-09-07T05:03:19;102095.00;;;15.00;89.20
72061;BME280;59925;52.136;5.420;2023-09-07T05:05:52;102098.78;;;14.99;89.58
72061;BME280;59925;52.136;5.420;2023-09-07T05:08:19;102096.09;;;14.99;89.47
72061;BME280;59925;52.136;5.420;2023-09-07T05:10:48;102096.88;;;15.00;89.43
72061;BME280;59925;52.136;5.420;2023-09-07T05:13:15;102095.81;;;15.01;88.96
72061;BME280;59925;52.136;5.420;2023-09-07T05:15:48;102100.13;;;15.02;88.36
72061;BME280;59925;52.136;5.420;2023-09-07T05:18:16;102109.03;;;15.02;88.37
72061;BME280;59925;52.136;5.420;2023-09-07T05:20:43;102112.28;;;14.99;88.82
72061;BME280;59925;52.136;5.420;2023-09-07T05:23:18;102115.25;;;14.98;89.36
72061;BME280;59925;52.136;5.420;2023-09-07T05:25:47;102116.88;;;14.94;89.47
72061;BME280;59925;52.136;5.420;2023-09-07T05:28:14;102117.38;;;14.96;89.74
72061;BME280;59925;52.136;5.420;2023-09-07T05:30:42;102122.00;;;14.95;90.00
72061;BME280;59925;52.136;5.420;2023-09-07T05:33:09;102120.09;;;14.96;90.05
72061;BME280;59925;52.136;5.420;2023-09-07T05:35:36;102120.09;;;14.96;90.59
72061;BME280;59925;52.136;5.420;2023-09-07T05:38:04;102122.53;;;14.97;90.59
72061;BME280;59925;52.136;5.420;2023-09-07T05:40:35;102125.50;;;15.01;90.05
72061;BME280;59925;52.136;5.420;2023-09-07T05:43:02;102121.44;;;15.04;90.19
72061;BME280;59925;52.136;5.420;2023-09-07T05:45:40;102125.25;;;15.08;90.27
72061;BME280;59925;52.136;5.420;2023-09-07T05:48:07;102129.28;;;15.10;90.35
72061;BME280;59925;52.136;5.420;2023-09-07T05:50:35;102123.38;;;15.13;90.21
72061;BME280;59925;52.136;5.420;2023-09-07T05:53:02;102127.94;;;15.28;90.62
72061;BME280;59925;52.136;5.420;2023-09-07T05:55:30;102119.56;;;15.51;90.17
72061;BME280;59925;52.136;5.420;2023-09-07T05:57:57;102123.38;;;15.55;89.88
72061;BME280;59925;52.136;5.420;2023-09-07T06:00:24;102123.09;;;15.61;90.27
72061;BME280;59925;52.136;5.420;2023-09-07T06:02:51;102129.56;;;15.71;90.29
72061;BME280;59925;52.136;5.420;2023-09-07T06:05:18;102134.69;;;15.83;90.47
72061;BME280;59925;52.136;5.420;2023-09-07T06:07:44;102125.47;;;16.09;91.46
72061;BME280;59925;52.136;5.420;2023-09-07T06:10:11;102135.22;;;17.16;92.25
72061;BME280;59925;52.136;5.420;2023-09-07T06:12:38;102133.22;;;18.59;87.34
72061;BME280;59925;52.136;5.420;2023-09-07T06:15:05;102141.91;;;18.99;80.77
72061;BME280;59925;52.136;5.420;2023-09-07T06:17:32;102142.59;;;18.47;80.22
72061;BME280;59925;52.136;5.420;2023-09-07T06:19:58;102145.06;;;18.00;81.59
72061;BME280;59925;52.136;5.420;2023-09-07T06:22:25;102151.25;;;17.76;83.03
72061;BME280;59925;52.136;5.420;2023-09-07T06:24:51;102146.19;;;17.65;84.40
72061;BME280;59925;52.136;5.420;2023-09-07T06:27:18;102151.91;;;17.63;85.37
72061;BME280;59925;52.136;5.420;2023-09-07T06:29:44;102157.56;;;17.67;86.05
72061;BME280;59925;52.136;5.420;2023-09-07T06:32:11;102148.56;;;17.71;86.43
72061;BME280;59925;52.136;5.420;2023-09-07T06:34:37;102160.16;;;17.82;86.47
72061;BME280;59925;52.136;5.420;2023-09-07T06:37:04;102157.31;;;17.92;86.11
72061;BME280;59925;52.136;5.420;2023-09-07T06:39:31;102156.44;;;18.02;86.00
72061;BME280;59925;52.136;5.420;2023-09-07T06:41:57;102156.63;;;18.11;85.87
72061;BME280;59925;52.136;5.420;2023-09-07T06:44:24;102154.31;;;18.23;85.28
72061;BME280;59925;52.136;5.420;2023-09-07T06:46:50;102162.28;;;18.39;85.13
72061;BME280;59925;52.136;5.420;2023-09-07T06:49:17;102162.13;;;18.49;84.84
72061;BME280;59925;52.136;5.420;2023-09-07T06:51:43;102160.06;;;18.60;84.65
72061;BME280;59925;52.136;5.420;2023-09-07T06:54:10;102169.44;;;18.73;83.96
72061;BME280;59925;52.136;5.420;2023-09-07T06:56:37;102164.06;;;18.87;83.91
72061;BME280;59925;52.136;5.420;2023-09-07T06:59:04;102158.75;;;19.01;83.23
72061;BME280;59925;52.136;5.420;2023-09-07T07:01:30;102164.75;;;19.17;82.72
72061;BME280;59925;52.136;5.420;2023-09-07T07:03:57;102158.88;;;19.29;82.30
72061;BME280;59925;52.136;5.420;2023-09-07T07:06:24;102152.66;;;19.42;82.35
72061;BME280;59925;52.136;5.420;2023-09-07T07:08:51;102168.72;;;19.58;81.67
72061;BME280;59925;52.136;5.420;2023-09-07T07:11:19;102169.34;;;19.69;81.09
72061;BME280;59925;52.136;5.420;2023-09-07T07:13:45;102170.75;;;19.80;80.71
72061;BME280;59925;52.136;5.420;2023-09-07T07:16:12;102167.28;;;19.94;80.72
72061;BME280;59925;52.136;5.420;2023-09-07T07:18:40;102171.34;;;20.10;79.81
72061;BME280;59925;52.136;5.420;2023-09-07T07:21:10;102165.69;;;20.20;79.01
72061;BME280;59925;52.136;5.420;2023-09-07T07:23:36;102165.97;;;20.33;78.96
72061;BME280;59925;52.136;5.420;2023-09-07T07:26:03;102173.97;;;20.43;78.56
72061;BME280;59925;52.136;5.420;2023-09-07T07:28:30;102167.69;;;20.57;76.86
72061;BME280;59925;52.136;5.420;2023-09-07T07:30:56;102166.34;;;20.68;77.01
72061;BME280;59925;52.136;5.420;2023-09-07T07:33:23;102163.00;;;20.85;76.67
72061;BME280;59925;52.136;5.420;2023-09-07T07:35:50;102168.88;;;21.01;75.95
72061;BME280;59925;52.136;5.420;2023-09-07T07:38:16;102168.28;;;21.04;74.73
72061;BME280;59925;52.136;5.420;2023-09-07T07:40:43;102169.47;;;21.12;74.18
72061;BME280;59925;52.136;5.420;2023-09-07T07:43:09;102163.16;;;21.25;72.67
72061;BME280;59925;52.136;5.420;2023-09-07T07:45:36;102162.88;;;21.36;72.30
72061;BME280;59925;52.136;5.420;2023-09-07T07:48:05;102162.81;;;21.50;72.32
72061;BME280;59925;52.136;5.420;2023-09-07T07:50:40;102156.50;;;21.63;72.47
72061;BME280;59925;52.136;5.420;2023-09-07T07:53:07;102158.03;;;21.78;72.63
72061;BME280;59925;52.136;5.420;2023-09-07T07:55:37;102154.22;;;21.97;72.24
72061;BME280;59925;52.136;5.420;2023-09-07T07:58:09;102144.00;;;22.11;71.66
72061;BME280;59925;52.136;5.420;2023-09-07T08:00:36;102159.44;;;22.25;70.80
72061;BME280;59925;52.136;5.420;2023-09-07T08:03:04;102153.44;;;22.45;70.57
72061;BME280;59925;52.136;5.420;2023-09-07T08:05:35;102148.63;;;22.60;69.12
72061;BME280;59925;52.136;5.420;2023-09-07T08:08:01;102154.56;;;22.71;69.45
72061;BME280;59925;52.136;5.420;2023-09-07T08:10:29;102155.88;;;22.82;68.97
72061;BME280;59925;52.136;5.420;2023-09-07T08:12:58;102146.38;;;22.97;69.70
72061;BME280;59925;52.136;5.420;2023-09-07T08:15:24;102143.31;;;23.07;67.72
72061;BME280;59925;52.136;5.420;2023-09-07T08:17:51;102142.97;;;23.18;67.91
72061;BME280;59925;52.136;5.420;2023-09-07T08:20:19;102136.22;;;23.33;66.59
72061;BME280;59925;52.136;5.420;2023-09-07T08:22:46;102132.78;;;23.53;66.59
72061;BME280;59925;52.136;5.420;2023-09-07T08:25:13;102134.22;;;23.60;65.27
72061;BME280;59925;52.136;5.420;2023-09-07T08:27:41;102128.03;;;23.71;65.34
72061;BME280;59925;52.136;5.420;2023-09-07T08:30:13;102130.06;;;23.92;64.61
72061;BME280;59925;52.136;5.420;2023-09-07T08:32:41;102123.75;;;24.00;63.18
72061;BME280;59925;52.136;5.420;2023-09-07T08:35:09;102124.19;;;24.11;63.83
72061;BME280;59925;52.136;5.420;2023-09-07T08:37:40;102118.25;;;24.30;63.72
72061;BME280;59925;52.136;5.420;2023-09-07T08:40:07;102117.94;;;24.53;62.89
72061;BME280;59925;52.136;5.420;2023-09-07T08:42:40;102124.28;;;24.66;62.59
72061;BME280;59925;52.136;5.420;2023-09-07T08:45:08;102113.66;;;24.86;61.30
72061;BME280;59925;52.136;5.420;2023-09-07T08:47:36;102119.22;;;25.10;60.73
72061;BME280;59925;52.136;5.420;2023-09-07T08:50:04;102113.44;;;25.24;60.28
72061;BME280;59925;52.136;5.420;2023-09-07T08:52:33;102115.69;;;25.44;59.39
72061;BME280;59925;52.136;5.420;2023-09-07T08:55:01;102109.72;;;25.54;58.34
72061;BME280;59925;52.136;5.420;2023-09-07T08:57:31;102108.72;;;25.71;58.71
72061;BME280;59925;52.136;5.420;2023-09-07T08:59:58;102107.25;;;25.86;57.78
72061;BME280;59925;52.136;5.420;2023-09-07T09:02:25;102110.66;;;25.95;56.06
72061;BME280;59925;52.136;5.420;2023-09-07T09:04:53;102104.69;;;26.06;56.04
72061;BME280;59925;52.136;5.420;2023-09-07T09:07:20;102105.25;;;26.24;56.50
72061;BME280;59925;52.136;5.420;2023-09-07T09:09:48;102100.09;;;26.35;56.16
72061;BME280;59925;52.136;5.420;2023-09-07T09:12:16;102096.88;;;26.33;54.87
72061;BME280;59925;52.136;5.420;2023-09-07T09:14:44;102104.56;;;26.27;54.69
72061;BME280;59925;52.136;5.420;2023-09-07T09:17:12;102095.00;;;26.49;54.25
72061;BME280;59925;52.136;5.420;2023-09-07T09:19:40;102095.13;;;26.81;55.52
72061;BME280;59925;52.136;5.420;2023-09-07T09:22:08;102089.16;;;27.07;54.55
72061;BME280;59925;52.136;5.420;2023-09-07T09:24:35;102088.91;;;27.13;53.29
72061;BME280;59925;52.136;5.420;2023-09-07T09:27:02;102098.03;;;27.33;53.86
72061;BME280;59925;52.136;5.420;2023-09-07T09:29:31;102089.97;;;27.56;53.75
72061;BME280;59925;52.136;5.420;2023-09-07T09:32:02;102092.38;;;27.74;51.52
72061;BME280;59925;52.136;5.420;2023-09-07T09:34:35;102083.63;;;27.88;52.12
72061;BME280;59925;52.136;5.420;2023-09-07T09:37:02;102088.97;;;27.80;48.89
72061;BME280;59925;52.136;5.420;2023-09-07T09:39:32;102086.03;;;27.89;49.79
72061;BME280;59925;52.136;5.420;2023-09-07T09:42:00;102093.78;;;28.19;49.83
72061;BME280;59925;52.136;5.420;2023-09-07T09:44:28;102085.31;;;28.28;48.93
72061;BME280;59925;52.136;5.420;2023-09-07T09:46:55;102087.63;;;28.26;48.60
72061;BME280;59925;52.136;5.420;2023-09-07T09:49:23;102086.63;;;28.34;47.61
72061;BME280;59925;52.136;5.420;2023-09-07T09:51:50;102081.38;;;28.29;47.98
72061;BME280;59925;52.136;5.420;2023-09-07T09:54:20;102081.09;;;28.54;49.34
72061;BME280;59925;52.136;5.420;2023-09-07T09:56:48;102076.97;;;28.83;46.75
72061;BME280;59925;52.136;5.420;2023-09-07T09:59:15;102072.47;;;28.75;46.03
72061;BME280;59925;52.136;5.420;2023-09-07T10:01:44;102075.34;;;28.63;46.86
72061;BME280;59925;52.136;5.420;2023-09-07T10:04:15;102087.78;;;28.72;46.26
72061;BME280;59925;52.136;5.420;2023-09-07T10:06:58;102073.28;;;28.99;45.89
72061;BME280;59925;52.136;5.420;2023-09-07T10:09:29;102079.13;;;28.94;44.97
72061;BME280;59925;52.136;5.420;2023-09-07T10:11:57;102074.88;;;29.00;45.39
72061;BME280;59925;52.136;5.420;2023-09-07T10:14:26;102071.16;;;29.35;46.30
72061;BME280;59925;52.136;5.420;2023-09-07T10:16:53;102071.44;;;29.53;45.18
72061;BME280;59925;52.136;5.420;2023-09-07T10:19:24;102062.00;;;29.54;44.33
72061;BME280;59925;52.136;5.420;2023-09-07T10:21:53;102074.56;;;29.51;44.64
72061;BME280;59925;52.136;5.420;2023-09-07T10:24:30;102065.53;;;29.31;43.48
72061;BME280;59925;52.136;5.420;2023-09-07T10:27:01;102067.75;;;29.22;43.21
72061;BME280;59925;52.136;5.420;2023-09-07T10:29:28;102061.88;;;29.24;42.52
72061;BME280;59925;52.136;5.420;2023-09-07T10:31:55;102060.66;;;29.44;42.98
72061;BME280;59925;52.136;5.420;2023-09-07T10:34:34;102061.94;;;29.77;45.30
72061;BME280;59925;52.136;5.420;2023-09-07T10:37:01;102055.22;;;30.05;42.36
72061;BME280;59925;52.136;5.420;2023-09-07T10:39:31;102064.81;;;30.15;43.36
72061;BME280;59925;52.136;5.420;2023-09-07T10:41:58;102058.72;;;30.33;42.78
72061;BME280;59925;52.136;5.420;2023-09-07T10:44:26;102057.50;;;30.30;42.39
72061;BME280;59925;52.136;5.420;2023-09-07T10:46:55;102059.47;;;30.30;42.73
72061;BME280;59925;52.136;5.420;2023-09-07T10:49:21;102048.13;;;30.38;41.47
72061;BME280;59925;52.136;5.420;2023-09-07T10:51:48;102053.31;;;30.43;41.94
72061;BME280;59925;52.136;5.420;2023-09-07T10:54:22;102052.97;;;30.49;40.68
72061;BME280;59925;52.136;5.420;2023-09-07T10:56:49;102050.56;;;30.43;42.17
72061;BME280;59925;52.136;5.420;2023-09-07T10:59:17;102048.59;;;30.82;41.00
72061;BME280;59925;52.136;5.420;2023-09-07T11:01:44;102052.25;;;30.93;42.22
72061;BME280;59925;52.136;5.420;2023-09-07T11:04:11;102050.94;;;31.25;41.58
72061;BME280;59925;52.136;5.420;2023-09-07T11:06:40;102044.81;;;31.53;39.58
72061;BME280;59925;52.136;5.420;2023-09-07T11:09:08;102035.31;;;31.54;41.60
72061;BME280;59925;52.136;5.420;2023-09-07T11:11:37;102042.53;;;31.66;39.23
72061;BME280;59925;52.136;5.420;2023-09-07T11:14:04;102040.91;;;31.61;39.94
72061;BME280;59925;52.136;5.420;2023-09-07T11:16:33;102031.47;;;31.70;39.79
72061;BME280;59925;52.136;5.420;2023-09-07T11:19:04;102034.19;;;31.62;40.35
72061;BME280;59925;52.136;5.420;2023-09-07T11:21:31;102025.06;;;31.62;39.22
72061;BME280;59925;52.136;5.420;2023-09-07T11:24:02;102027.69;;;32.03;39.45
72061;BME280;59925;52.136;5.420;2023-09-07T11:26:45;102020.19;;;32.11;37.64
72061;BME280;59925;52.136;5.420;2023-09-07T11:29:16;102013.47;;;32.19;37.88
72061;BME280;59925;52.136;5.420;2023-09-07T11:31:44;102013.03;;;32.14;37.10
72061;BME280;59925;52.136;5.420;2023-09-07T11:34:12;102010.28;;;32.10;36.21
72061;BME280;59925;52.136;5.420;2023-09-07T11:36:40;102013.44;;;32.12;37.38
72061;BME280;59925;52.136;5.420;2023-09-07T11:39:07;102009.16;;;32.25;35.65
72061;BME280;59925;52.136;5.420;2023-09-07T11:41:41;102005.91;;;32.16;37.27
72061;BME280;59925;52.136;5.420;2023-09-07T11:44:09;102009.19;;;32.44;36.65
72061;BME280;59925;52.136;5.420;2023-09-07T11:46:36;102009.19;;;32.40;36.38
72061;BME280;59925;52.136;5.420;2023-09-07T11:49:03;102009.16;;;32.36;35.97
72061;BME280;59925;52.136;5.420;2023-09-07T11:51:33;102002.09;;;32.57;36.38
72061;BME280;59925;52.136;5.420;2023-09-07T11:54:01;101998.91;;;32.69;36.02
72061;BME280;59925;52.136;5.420;2023-09-07T11:56:28;101993.75;;;32.57;35.96
72061;BME280;59925;52.136;5.420;2023-09-07T11:58:55;101994.09;;;32.34;35.70
72061;BME280;59925;52.136;5.420;2023-09-07T12:01:22;101987.78;;;32.62;34.82
72061;BME280;59925;52.136;5.420;2023-09-07T12:03:49;101988.22;;;32.71;35.06
72061;BME280;59925;52.136;5.420;2023-09-07T12:06:15;101991.38;;;32.66;35.64
72061;BME280;59925;52.136;5.420;2023-09-07T12:08:42;101989.00;;;32.72;36.28
72061;BME280;59925;52.136;5.420;2023-09-07T12:11:23;101983.88;;;32.89;35.93
72061;BME280;59925;52.136;5.420;2023-09-07T12:13:50;101980.28;;;33.03;35.87
72061;BME280;59925;52.136;5.420;2023-09-07T12:16:17;101977.06;;;33.33;35.89
72061;BME280;59925;52.136;5.420;2023-09-07T12:18:43;101986.59;;;33.32;35.96
72061;BME280;59925;52.136;5.420;2023-09-07T12:21:10;101983.81;;;33.28;36.27
72061;BME280;59925;52.136;5.420;2023-09-07T12:23:36;101987.00;;;33.16;37.50
72061;BME280;59925;52.136;5.420;2023-09-07T12:26:03;101978.31;;;32.99;35.43
72061;BME280;59925;52.136;5.420;2023-09-07T12:28:32;101977.03;;;33.51;36.37
72061;BME280;59925;52.136;5.420;2023-09-07T12:30:59;101972.91;;;33.92;36.18
72061;BME280;59925;52.136;5.420;2023-09-07T12:33:26;101970.53;;;33.83;33.36
72061;BME280;59925;52.136;5.420;2023-09-07T12:35:52;101961.59;;;33.46;33.31
72061;BME280;59925;52.136;5.420;2023-09-07T12:38:19;101965.47;;;33.64;35.21
72061;BME280;59925;52.136;5.420;2023-09-07T12:40:47;101962.28;;;33.72;35.01
72061;BME280;59925;52.136;5.420;2023-09-07T12:43:14;101958.84;;;33.21;33.99
72061;BME280;59925;52.136;5.420;2023-09-07T12:45:40;101959.22;;;33.27;33.13
72061;BME280;59925;52.136;5.420;2023-09-07T12:48:09;101958.81;;;33.36;34.59
72061;BME280;59925;52.136;5.420;2023-09-07T12:50:36;101956.34;;;33.63;32.96
72061;BME280;59925;52.136;5.420;2023-09-07T12:53:02;101964.97;;;33.94;33.95